Time;durP1;ratioP1;P1;durP2;ratioP2;P2;SDS_P1;SDS_P2;PMS_P1;PMS_P2;Temp;Humidity;BMP_temperature;BMP_pressure;BME280_temperature;BME280_humidity;BME280_pressure;Samples;Min_cycle;Max_cycle;Signal;HPM_P1;HPM_P2
2022/12/03 00:00:48;;;;;;;42.17;23.00;;;;;;;;;;5074602;28;20020;-70
2022/12/03 00:03:13;;;;;;;51.45;27.20;;;;;;;;;;5074353;28;20012;-71
2022/12/03 00:05:39;;;;;;;43.78;24.77;;;;;;;;;;5056701;28;20025;-67
2022/12/03 00:08:04;;;;;;;40.85;23.80;;;;;;;;;;5074659;28;20509;-67
2022/12/03 00:10:29;;;;;;;38.92;22.63;;;;;;;;;;5074611;28;20447;-67
2022/12/03 00:12:55;;;;;;;37.22;21.60;;;;;;;;;;5074699;28;20031;-67
2022/12/03 00:15:20;;;;;;;35.05;20.38;;;;;;;;;;5074196;28;20024;-70
2022/12/03 00:17:45;;;;;;;37.65;21.05;;;;;;;;;;5074309;28;20020;-70
2022/12/03 00:20:17;;;;;;;35.88;21.08;;;;;;;;;;5074312;28;20081;-71
2022/12/03 00:22:42;;;;;;;52.05;26.85;;;;;;;;;;5074425;28;20032;-71
2022/12/03 00:25:08;;;;;;;57.53;28.92;;;;;;;;;;5074375;28;20070;-70
2022/12/03 00:27:33;;;;;;;47.45;25.38;;;;;;;;;;5074232;28;20534;-70
2022/12/03 00:29:59;;;;;;;47.38;25.27;;;;;;;;;;5074462;28;20021;-66
2022/12/03 00:32:24;;;;;;;42.05;23.13;;;;;;;;;;5056088;28;20033;-66
2022/12/03 00:34:49;;;;;;;40.05;22.20;;;;;;;;;;5074341;28;20031;-68
2022/12/03 00:37:15;;;;;;;39.33;21.67;;;;;;;;;;5074281;28;20107;-68
2022/12/03 00:39:40;;;;;;;38.88;22.58;;;;;;;;;;5074262;28;20025;-68
2022/12/03 00:42:06;;;;;;;37.75;21.45;;;;;;;;;;5074319;28;20024;-68
2022/12/03 00:44:31;;;;;;;36.72;20.48;;;;;;;;;;5056519;28;20120;-71
2022/12/03 00:46:57;;;;;;;44.70;22.00;;;;;;;;;;5074000;28;20055;-71
2022/12/03 00:49:22;;;;;;;38.30;22.10;;;;;;;;;;5074199;28;20060;-71
2022/12/03 00:51:48;;;;;;;46.63;22.83;;;;;;;;;;5074026;28;20062;-67
2022/12/03 00:54:14;;;;;;;41.38;22.15;;;;;;;;;;5055727;28;20393;-71
2022/12/03 00:56:39;;;;;;;38.97;20.67;;;;;;;;;;5073862;28;20095;-71
2022/12/03 00:59:05;;;;;;;44.25;21.52;;;;;;;;;;5055951;28;20020;-71
2022/12/03 01:01:30;;;;;;;39.08;21.48;;;;;;;;;;5073620;28;20070;-71
2022/12/03 01:03:55;;;;;;;36.80;21.52;;;;;;;;;;5073636;28;20064;-71
2022/12/03 01:06:21;;;;;;;37.42;22.63;;;;;;;;;;5073543;28;20097;-66
2022/12/03 01:08:46;;;;;;;42.70;23.63;;;;;;;;;;5073509;28;20033;-67
2022/12/03 01:11:58;;;;;;;47.10;27.25;;;;;;;;;;5055846;28;20081;-66
2022/12/03 01:13:58;;;;;;;44.50;24.83;;;;;;;;;;5062766;28;20044;-67
2022/12/03 01:16:23;;;;;;;37.33;23.73;;;;;;;;;;5073707;28;20470;-71
2022/12/03 01:18:51;;;;;;;37.72;21.55;;;;;;;;;;5073515;28;20025;-71
2022/12/03 01:21:16;;;;;;;43.58;23.58;;;;;;;;;;5073411;28;20021;-71
2022/12/03 01:23:42;;;;;;;44.83;24.38;;;;;;;;;;5073432;28;20521;-70
2022/12/03 01:26:07;;;;;;;42.65;24.10;;;;;;;;;;5073724;28;20027;-71
2022/12/03 01:28:33;;;;;;;32.95;21.15;;;;;;;;;;5073630;28;20044;-70
2022/12/03 01:33:42;;;;;;;33.13;20.15;;;;;;;;;;5073209;28;20040;-70
2022/12/03 01:36:07;;;;;;;33.97;20.35;;;;;;;;;;5073706;28;20028;-71
2022/12/03 01:38:33;;;;;;;33.90;21.17;;;;;;;;;;5073396;28;20493;-71
2022/12/03 01:40:58;;;;;;;32.58;20.25;;;;;;;;;;5073611;28;20035;-71
2022/12/03 01:43:24;;;;;;;35.47;20.48;;;;;;;;;;5073166;28;20024;-71
2022/12/03 01:45:49;;;;;;;37.38;20.95;;;;;;;;;;5073343;28;20075;-71
2022/12/03 01:48:18;;;;;;;30.63;19.48;;;;;;;;;;5073449;28;20443;-70
2022/12/03 01:50:44;;;;;;;32.40;18.95;;;;;;;;;;5073636;28;20451;-67
2022/12/03 01:53:13;;;;;;;38.63;22.80;;;;;;;;;;5073229;28;20078;-66
2022/12/03 01:55:38;;;;;;;37.80;21.70;;;;;;;;;;5073182;28;20028;-67
2022/12/03 01:58:04;;;;;;;36.60;21.90;;;;;;;;;;5073047;28;20033;-67
2022/12/03 02:00:29;;;;;;;39.20;21.65;;;;;;;;;;5073030;28;20092;-67
2022/12/03 02:02:56;;;;;;;38.63;21.63;;;;;;;;;;5073396;28;20386;-67
2022/12/03 02:05:29;;;;;;;35.70;21.33;;;;;;;;;;5073179;28;20021;-70
2022/12/03 02:07:55;;;;;;;36.28;21.75;;;;;;;;;;5055432;28;20089;-71
2022/12/03 02:10:23;;;;;;;35.72;20.73;;;;;;;;;;5072847;28;20028;-71
2022/12/03 02:12:59;;;;;;;32.80;19.15;;;;;;;;;;5073276;28;20051;-71
2022/12/03 02:15:25;;;;;;;33.55;19.15;;;;;;;;;;5084891;28;20043;-71
2022/12/03 02:17:51;;;;;;;35.22;20.15;;;;;;;;;;5075270;28;20024;-71
2022/12/03 02:20:16;;;;;;;35.67;21.00;;;;;;;;;;5093236;28;20028;-71
2022/12/03 02:22:51;;;;;;;36.72;21.13;;;;;;;;;;5077737;28;20510;-71
2022/12/03 02:25:19;;;;;;;32.55;19.85;;;;;;;;;;5090754;28;20536;-71
2022/12/03 02:27:45;;;;;;;33.70;19.40;;;;;;;;;;5096872;28;20031;-71
2022/12/03 02:30:12;;;;;;;31.45;19.35;;;;;;;;;;5096737;28;20032;-71
2022/12/03 02:32:37;;;;;;;33.95;19.30;;;;;;;;;;5096551;28;20055;-71
2022/12/03 02:35:03;;;;;;;33.75;19.52;;;;;;;;;;5096486;28;20422;-71
2022/12/03 02:37:31;;;;;;;29.27;18.42;;;;;;;;;;5094186;28;20055;-71
2022/12/03 02:39:58;;;;;;;32.20;18.55;;;;;;;;;;5096545;28;20035;-71
2022/12/03 02:42:36;;;;;;;34.38;20.45;;;;;;;;;;5096186;28;20024;-71
2022/12/03 02:45:15;;;;;;;32.60;19.70;;;;;;;;;;5096455;28;20039;-71
2022/12/03 02:47:43;;;;;;;32.47;19.70;;;;;;;;;;5096059;28;20040;-71
2022/12/03 02:50:10;;;;;;;31.60;19.85;;;;;;;;;;5095769;28;20103;-72
2022/12/03 02:52:35;;;;;;;28.17;17.80;;;;;;;;;;5096239;28;20059;-72
2022/12/03 02:55:01;;;;;;;31.83;18.65;;;;;;;;;;5077852;28;20410;-72
2022/12/03 02:57:27;;;;;;;28.33;18.40;;;;;;;;;;5096304;28;20078;-72
2022/12/03 02:59:52;;;;;;;30.98;19.08;;;;;;;;;;5096006;28;20016;-71
2022/12/03 03:02:18;;;;;;;34.00;20.00;;;;;;;;;;5078188;28;20024;-71
2022/12/03 03:04:44;;;;;;;33.05;20.00;;;;;;;;;;5095929;28;20439;-71
2022/12/03 03:07:09;;;;;;;31.80;19.23;;;;;;;;;;5095834;28;20040;-71
2022/12/03 03:09:34;;;;;;;34.78;20.38;;;;;;;;;;5096069;28;20036;-71
2022/12/03 03:12:00;;;;;;;37.38;21.42;;;;;;;;;;5077758;28;20470;-71
2022/12/03 03:14:26;;;;;;;38.10;20.25;;;;;;;;;;5095852;28;20103;-72
2022/12/03 03:16:54;;;;;;;38.70;20.65;;;;;;;;;;5095983;28;20640;-71
2022/12/03 03:19:29;;;;;;;36.28;19.77;;;;;;;;;;5077277;28;20011;-71
2022/12/03 03:21:54;;;;;;;40.20;20.63;;;;;;;;;;5091924;28;20028;-71
2022/12/03 03:24:20;;;;;;;38.40;20.77;;;;;;;;;;5095561;28;20020;-71
2022/12/03 03:26:46;;;;;;;43.88;21.65;;;;;;;;;;5095363;28;20036;-71
2022/12/03 03:29:12;;;;;;;40.28;23.00;;;;;;;;;;5095445;28;20486;-72
2022/12/03 03:31:38;;;;;;;44.65;24.33;;;;;;;;;;5095467;28;20078;-71
2022/12/03 03:34:03;;;;;;;48.40;25.98;;;;;;;;;;5076893;28;20024;-71
2022/12/03 03:36:29;;;;;;;45.25;23.30;;;;;;;;;;5095271;28;20036;-72
2022/12/03 03:38:55;;;;;;;40.75;21.95;;;;;;;;;;5095588;28;20067;-71
2022/12/03 03:41:20;;;;;;;44.53;22.20;;;;;;;;;;5077083;28;20055;-71
2022/12/03 03:43:47;;;;;;;40.60;22.98;;;;;;;;;;5095271;28;20020;-71
2022/12/03 03:46:13;;;;;;;44.33;22.85;;;;;;;;;;5095410;28;20028;-68
2022/12/03 03:48:40;;;;;;;43.72;22.70;;;;;;;;;;5077047;28;20473;-71
2022/12/03 03:51:08;;;;;;;53.30;31.45;;;;;;;;;;5095076;28;20035;-71
2022/12/03 03:53:34;;;;;;;54.55;28.40;;;;;;;;;;5094979;28;20031;-68
2022/12/03 03:55:59;;;;;;;124.65;85.63;;;;;;;;;;5094759;28;20034;-68
2022/12/03 03:58:24;;;;;;;292.90;172.15;;;;;;;;;;5094871;28;20091;-68
2022/12/03 04:00:50;;;;;;;60.47;33.30;;;;;;;;;;5095094;28;20454;-67
2022/12/03 04:03:15;;;;;;;47.10;23.98;;;;;;;;;;5095279;28;20026;-67
2022/12/03 04:05:41;;;;;;;44.95;24.08;;;;;;;;;;5094632;28;20020;-67
2022/12/03 04:08:06;;;;;;;57.60;31.90;;;;;;;;;;5094940;28;20450;-67
2022/12/03 04:13:15;;;;;;;44.10;24.90;;;;;;;;;;5094616;28;20028;-67
2022/12/03 04:15:41;;;;;;;53.03;25.58;;;;;;;;;;5089664;28;20035;-70
2022/12/03 04:20:50;;;;;;;49.25;25.05;;;;;;;;;;5076570;28;20036;-67
2022/12/03 04:23:16;;;;;;;60.78;36.13;;;;;;;;;;5076354;28;20020;-67
2022/12/03 04:36:37;;;;;;;50.42;25.75;;;;;;;;;;5094039;28;20079;-67
2022/12/03 04:39:03;;;;;;;46.97;23.73;;;;;;;;;;5076246;28;20047;-71
2022/12/03 04:41:28;;;;;;;52.95;25.35;;;;;;;;;;5094296;28;20121;-70
2022/12/03 04:46:45;;;;;;;45.30;25.42;;;;;;;;;;5057335;28;20052;-70
2022/12/03 04:49:11;;;;;;;57.08;28.67;;;;;;;;;;5094326;28;20031;-70
2022/12/03 04:51:37;;;;;;;52.38;26.88;;;;;;;;;;5094235;28;20027;-71
2022/12/03 04:54:02;;;;;;;50.55;27.10;;;;;;;;;;5094116;28;20012;-71
2022/12/03 04:56:27;;;;;;;48.30;26.20;;;;;;;;;;5094197;28;20038;-70
2022/12/03 04:58:53;;;;;;;50.42;26.85;;;;;;;;;;5094471;28;20070;-70
2022/12/03 05:01:18;;;;;;;45.55;24.02;;;;;;;;;;5094288;28;20027;-70
2022/12/03 05:03:43;;;;;;;43.90;23.95;;;;;;;;;;5075605;28;20089;-71
2022/12/03 05:06:09;;;;;;;45.70;23.58;;;;;;;;;;5094282;28;20039;-71
2022/12/03 05:08:34;;;;;;;45.20;24.25;;;;;;;;;;5075838;28;20030;-71
2022/12/03 05:11:00;;;;;;;44.83;23.85;;;;;;;;;;5094314;28;20094;-71
2022/12/03 05:13:25;;;;;;;45.28;24.38;;;;;;;;;;5076203;28;20066;-71
2022/12/03 05:15:50;;;;;;;48.97;25.00;;;;;;;;;;5093989;28;20032;-71
2022/12/03 05:18:15;;;;;;;54.13;26.42;;;;;;;;;;5093946;28;20020;-71
2022/12/03 05:20:56;;;;;;;;;;;;;;;;;;5071607;28;20422;-71
2022/12/03 05:23:22;;;;;;;50.85;26.00;;;;;;;;;;5076001;28;19910;-71
2022/12/03 05:25:47;;;;;;;52.58;26.67;;;;;;;;;;5094145;28;20021;-71
2022/12/03 05:28:13;;;;;;;51.85;27.60;;;;;;;;;;5075901;28;20034;-71
2022/12/03 05:30:38;;;;;;;49.28;26.95;;;;;;;;;;5093529;28;20024;-71
2022/12/03 05:33:03;;;;;;;45.47;24.70;;;;;;;;;;5093810;28;20027;-71
2022/12/03 05:35:29;;;;;;;46.92;25.63;;;;;;;;;;5093649;28;20028;-67
2022/12/03 05:37:54;;;;;;;48.40;26.60;;;;;;;;;;5093961;28;20048;-67
2022/12/03 05:40:20;;;;;;;41.72;23.20;;;;;;;;;;5093630;28;20331;-66
2022/12/03 05:43:00;;;;;;;52.08;29.10;;;;;;;;;;5093477;28;20033;-66
2022/12/03 05:45:30;;;;;;;51.15;26.83;;;;;;;;;;5093404;28;20020;-67
2022/12/03 05:47:56;;;;;;;94.28;50.30;;;;;;;;;;5093798;28;20035;-67
2022/12/03 05:50:22;;;;;;;50.45;27.38;;;;;;;;;;5093162;28;20028;-66
2022/12/03 05:52:47;;;;;;;50.45;28.02;;;;;;;;;;5075646;28;20040;-66
2022/12/03 05:55:13;;;;;;;46.42;26.23;;;;;;;;;;5093736;28;20016;-66
2022/12/03 05:57:39;;;;;;;49.63;27.98;;;;;;;;;;5097126;28;20024;-71
2022/12/03 06:00:06;;;;;;;47.70;25.27;;;;;;;;;;5097393;28;20035;-71
2022/12/03 06:02:37;;;;;;;42.22;23.10;;;;;;;;;;5097043;28;20553;-71
2022/12/03 06:05:03;;;;;;;41.65;23.92;;;;;;;;;;5096993;28;20109;-70
2022/12/03 06:07:28;;;;;;;42.15;23.60;;;;;;;;;;5097133;28;20022;-70
2022/12/03 06:09:54;;;;;;;46.38;24.45;;;;;;;;;;5097004;28;20075;-70
2022/12/03 06:12:19;;;;;;;46.10;24.02;;;;;;;;;;5096326;28;20027;-71
2022/12/03 06:14:45;;;;;;;48.60;26.23;;;;;;;;;;5095740;28;20117;-71
2022/12/03 06:17:10;;;;;;;46.28;24.35;;;;;;;;;;5095759;28;20035;-66
2022/12/03 06:19:35;;;;;;;50.10;24.58;;;;;;;;;;5096521;28;20020;-68
2022/12/03 06:22:01;;;;;;;52.80;25.50;;;;;;;;;;5096404;28;20129;-67
2022/12/03 06:24:26;;;;;;;48.75;26.08;;;;;;;;;;5096457;28;20477;-67
2022/12/03 06:26:52;;;;;;;53.92;27.58;;;;;;;;;;5096005;28;20103;-67
2022/12/03 06:29:17;;;;;;;50.10;26.40;;;;;;;;;;5096335;28;20374;-66
2022/12/03 06:31:42;;;;;;;47.60;25.52;;;;;;;;;;5095981;28;20035;-66
2022/12/03 06:34:08;;;;;;;49.38;26.13;;;;;;;;;;5078034;28;20081;-66
2022/12/03 06:36:33;;;;;;;47.47;24.50;;;;;;;;;;5095861;28;20451;-66
2022/12/03 06:38:59;;;;;;;47.42;24.17;;;;;;;;;;5094760;28;20028;-66
2022/12/03 06:41:26;;;;;;;45.72;25.05;;;;;;;;;;5077517;28;20054;-66
2022/12/03 06:43:52;;;;;;;44.55;23.08;;;;;;;;;;5095312;28;20542;-66
2022/12/03 06:46:17;;;;;;;42.90;24.20;;;;;;;;;;5095160;28;20049;-66
2022/12/03 06:48:43;;;;;;;42.88;24.05;;;;;;;;;;5094801;28;20478;-60
2022/12/03 06:51:08;;;;;;;43.00;23.73;;;;;;;;;;5095359;28;20025;-65
2022/12/03 06:53:33;;;;;;;45.72;25.20;;;;;;;;;;5095368;28;20036;-65
2022/12/03 06:55:59;;;;;;;45.38;23.75;;;;;;;;;;5094791;28;20012;-65
2022/12/03 06:58:24;;;;;;;43.90;23.83;;;;;;;;;;5094874;28;20465;-65
2022/12/03 07:00:49;;;;;;;47.78;25.27;;;;;;;;;;5094893;28;20016;-65
2022/12/03 07:03:15;;;;;;;47.38;25.63;;;;;;;;;;5094570;28;20138;-65
2022/12/03 07:05:40;;;;;;;48.72;26.05;;;;;;;;;;5092044;28;20024;-66
2022/12/03 07:08:06;;;;;;;44.65;23.05;;;;;;;;;;5090983;28;20093;-66
2022/12/03 07:10:31;;;;;;;44.42;24.35;;;;;;;;;;5091920;28;20077;-66
2022/12/03 07:12:56;;;;;;;46.20;24.40;;;;;;;;;;5073187;28;20504;-66
2022/12/03 07:15:22;;;;;;;44.58;24.38;;;;;;;;;;5074093;28;20485;-66
2022/12/03 07:17:47;;;;;;;40.40;22.83;;;;;;;;;;5092181;28;20077;-66
2022/12/03 07:20:15;;;;;;;43.10;22.65;;;;;;;;;;5092801;28;20099;-66
2022/12/03 07:22:40;;;;;;;45.10;25.00;;;;;;;;;;5093858;28;20032;-66
2022/12/03 07:25:06;;;;;;;42.63;23.77;;;;;;;;;;5076417;28;20055;-66
2022/12/03 07:27:31;;;;;;;41.78;23.65;;;;;;;;;;5095134;28;20028;-66
2022/12/03 07:29:56;;;;;;;51.05;26.30;;;;;;;;;;5094424;28;20058;-66
2022/12/03 07:32:22;;;;;;;43.13;24.98;;;;;;;;;;5071564;28;20073;-66
2022/12/03 07:34:47;;;;;;;40.80;24.20;;;;;;;;;;5094931;28;20106;-66
2022/12/03 07:37:13;;;;;;;40.80;22.75;;;;;;;;;;5076412;28;20040;-66
2022/12/03 07:39:39;;;;;;;46.03;23.58;;;;;;;;;;5094499;28;20488;-66
2022/12/03 07:42:04;;;;;;;40.47;24.15;;;;;;;;;;5093867;28;20028;-66
2022/12/03 07:44:33;;;;;;;43.38;23.35;;;;;;;;;;5058569;28;20031;-66
2022/12/03 07:46:58;;;;;;;41.53;23.70;;;;;;;;;;5093790;28;20028;-66
2022/12/03 07:49:23;;;;;;;44.90;23.88;;;;;;;;;;5074501;28;20016;-66
2022/12/03 07:51:56;;;;;;;49.65;24.65;;;;;;;;;;5076156;28;20044;-66
2022/12/03 07:54:24;;;;;;;38.65;23.23;;;;;;;;;;5094285;28;20446;-64
2022/12/03 07:56:50;;;;;;;41.72;22.90;;;;;;;;;;5078866;28;20016;-66
2022/12/03 07:59:16;;;;;;;39.15;21.70;;;;;;;;;;5071725;28;20020;-66
2022/12/03 08:01:41;;;;;;;58.70;33.90;;;;;;;;;;5053273;28;20080;-66
2022/12/03 08:04:07;;;;;;;62.55;35.75;;;;;;;;;;5072225;28;20375;-66
2022/12/03 08:06:32;;;;;;;118.65;66.95;;;;;;;;;;5072551;28;20024;-71
2022/12/03 08:08:58;;;;;;;62.83;36.10;;;;;;;;;;5056065;28;20479;-70
2022/12/03 08:11:23;;;;;;;124.43;72.78;;;;;;;;;;5073692;28;20453;-71
2022/12/03 08:13:48;;;;;;;77.93;49.63;;;;;;;;;;5074140;28;20040;-71
2022/12/03 08:16:15;;;;;;;59.92;37.15;;;;;;;;;;5073863;28;20020;-71
2022/12/03 08:18:41;;;;;;;42.70;22.83;;;;;;;;;;5073391;28;20044;-70
2022/12/03 08:21:09;;;;;;;40.75;22.85;;;;;;;;;;5073541;28;20020;-70
2022/12/03 08:23:35;;;;;;;49.35;27.38;;;;;;;;;;5072574;28;20110;-70
2022/12/03 08:26:01;;;;;;;119.03;65.95;;;;;;;;;;5073239;28;20059;-71
2022/12/03 08:28:27;;;;;;;218.65;118.85;;;;;;;;;;5054378;28;20028;-71
2022/12/03 08:30:58;;;;;;;167.13;88.78;;;;;;;;;;5071503;28;20027;-71
2022/12/03 08:33:28;;;;;;;67.57;37.85;;;;;;;;;;5070821;28;20021;-71
2022/12/03 08:35:54;;;;;;;172.70;99.30;;;;;;;;;;5069567;28;20040;-71
2022/12/03 08:38:21;;;;;;;108.95;54.00;;;;;;;;;;5088569;28;20051;-71
2022/12/03 08:40:49;;;;;;;101.20;56.28;;;;;;;;;;5088513;28;20102;-70
2022/12/03 08:43:18;;;;;;;94.65;52.47;;;;;;;;;;5054686;28;20393;-69
2022/12/03 08:45:44;;;;;;;104.28;56.28;;;;;;;;;;5074419;28;20382;-63
2022/12/03 08:48:31;;;;;;;94.35;53.97;;;;;;;;;;5093105;28;20032;-70
2022/12/03 08:51:25;;;;;;;54.65;30.67;;;;;;;;;;5092836;28;20035;-70
2022/12/03 08:53:52;;;;;;;57.05;30.55;;;;;;;;;;5091527;28;20137;-70
2022/12/03 08:56:23;;;;;;;61.40;32.92;;;;;;;;;;5074148;28;20027;-70
2022/12/03 08:58:54;;;;;;;47.65;25.42;;;;;;;;;;5092173;28;20063;-70
2022/12/03 09:01:22;;;;;;;52.22;24.83;;;;;;;;;;5091617;28;20028;-70
2022/12/03 09:03:50;;;;;;;47.22;24.40;;;;;;;;;;5091270;28;20020;-70
2022/12/03 09:06:15;;;;;;;53.15;25.55;;;;;;;;;;5091252;28;20264;-70
2022/12/03 09:08:41;;;;;;;44.20;24.23;;;;;;;;;;5073895;28;20043;-70
2022/12/03 09:11:06;;;;;;;48.33;24.20;;;;;;;;;;5090261;28;20409;-70
2022/12/03 09:13:31;;;;;;;50.22;24.65;;;;;;;;;;5090379;28;20024;-70
2022/12/03 09:15:57;;;;;;;54.72;27.48;;;;;;;;;;5090171;28;20115;-70
2022/12/03 09:18:22;;;;;;;52.78;25.92;;;;;;;;;;5090252;28;20020;-70
2022/12/03 09:20:47;;;;;;;62.17;32.97;;;;;;;;;;5090048;28;20482;-70
2022/12/03 09:23:13;;;;;;;48.67;27.27;;;;;;;;;;5090505;28;20042;-70
2022/12/03 09:25:38;;;;;;;65.68;38.97;;;;;;;;;;5091482;28;20024;-70
2022/12/03 09:28:03;;;;;;;57.20;32.38;;;;;;;;;;5091315;28;20502;-70
2022/12/03 09:30:29;;;;;;;56.50;33.38;;;;;;;;;;5092472;28;20027;-70
2022/12/03 09:32:54;;;;;;;64.47;39.65;;;;;;;;;;5078276;28;20023;-70
2022/12/03 09:35:20;;;;;;;60.88;34.53;;;;;;;;;;5096332;28;20355;-70
2022/12/03 09:37:45;;;;;;;60.30;32.67;;;;;;;;;;5096111;28;20111;-70
2022/12/03 09:40:11;;;;;;;61.90;32.25;;;;;;;;;;5096674;28;20051;-70
2022/12/03 09:42:36;;;;;;;66.18;38.92;;;;;;;;;;5096166;28;20024;-70
2022/12/03 09:45:04;;;;;;;58.33;35.42;;;;;;;;;;5078076;28;20020;-70
2022/12/03 09:47:30;;;;;;;44.72;23.63;;;;;;;;;;5095991;28;20073;-70
2022/12/03 09:49:56;;;;;;;42.92;23.67;;;;;;;;;;5077892;28;20032;-70
2022/12/03 09:52:26;;;;;;;47.08;24.83;;;;;;;;;;5096078;28;20462;-70
2022/12/03 09:54:51;;;;;;;51.30;26.10;;;;;;;;;;5095756;28;20482;-69
2022/12/03 09:57:17;;;;;;;51.10;25.35;;;;;;;;;;5095890;28;20023;-70
2022/12/03 09:59:42;;;;;;;48.17;24.48;;;;;;;;;;5095740;28;20462;-70
2022/12/03 10:02:34;;;;;;;45.58;25.17;;;;;;;;;;5077663;28;20012;-70
2022/12/03 10:04:59;;;;;;;44.00;24.58;;;;;;;;;;5091023;28;20040;-68
2022/12/03 10:07:25;;;;;;;53.22;28.13;;;;;;;;;;5095843;28;20077;-70
2022/12/03 10:09:50;;;;;;;54.72;28.73;;;;;;;;;;5077429;28;20595;-70
2022/12/03 10:12:20;;;;;;;49.45;27.85;;;;;;;;;;5095478;28;20462;-70
2022/12/03 10:14:45;;;;;;;49.85;26.70;;;;;;;;;;5077389;28;20062;-70
2022/12/03 10:17:10;;;;;;;51.67;26.67;;;;;;;;;;5095487;28;20044;-70
2022/12/03 10:19:38;;;;;;;48.40;25.80;;;;;;;;;;5095524;28;20024;-68
2022/12/03 10:22:03;;;;;;;47.53;26.42;;;;;;;;;;5077284;28;20099;-70
2022/12/03 10:24:33;;;;;;;51.75;30.65;;;;;;;;;;5077617;28;20070;-70
2022/12/03 10:27:00;;;;;;;58.45;29.58;;;;;;;;;;5095440;28;20111;-69
2022/12/03 10:29:30;;;;;;;85.28;41.55;;;;;;;;;;5095362;28;20039;-70
2022/12/03 10:32:00;;;;;;;62.45;33.50;;;;;;;;;;5095476;28;20031;-69
2022/12/03 10:34:30;;;;;;;59.65;30.52;;;;;;;;;;5095133;28;20034;-70
2022/12/03 10:36:56;;;;;;;;;;;;;;;;;;5095524;28;20063;-70
2022/12/03 10:39:21;;;;;;;57.70;30.40;;;;;;;;;;5094907;28;19990;-70
2022/12/03 10:41:47;;;;;;;246.00;183.85;;;;;;;;;;5094018;28;20032;-69
2022/12/03 10:44:17;;;;;;;149.13;99.82;;;;;;;;;;5094885;28;20091;-70
2022/12/03 10:46:44;;;;;;;57.58;30.17;;;;;;;;;;5095138;28;20032;-70
2022/12/03 10:49:13;;;;;;;130.20;93.32;;;;;;;;;;5094612;28;20020;-70
2022/12/03 10:51:39;;;;;;;90.13;58.25;;;;;;;;;;5095438;28;20421;-70
2022/12/03 10:54:10;;;;;;;77.97;49.25;;;;;;;;;;5094912;28;20072;-70
2022/12/03 10:56:36;;;;;;;47.10;26.42;;;;;;;;;;5095242;28;20060;-69
2022/12/03 10:59:01;;;;;;;47.53;26.90;;;;;;;;;;5077434;28;20047;-68
2022/12/03 11:01:26;;;;;;;55.72;28.45;;;;;;;;;;5095775;28;20043;-70
2022/12/03 11:04:02;;;;;;;62.03;34.75;;;;;;;;;;5095426;28;20028;-68
2022/12/03 11:06:37;;;;;;;93.55;56.28;;;;;;;;;;5095233;28;20058;-70
2022/12/03 11:09:04;;;;;;;82.07;46.65;;;;;;;;;;5076829;28;20035;-70
2022/12/03 11:11:30;;;;;;;66.47;40.65;;;;;;;;;;5094316;28;20028;-69
2022/12/03 11:13:57;;;;;;;76.28;48.10;;;;;;;;;;5094272;28;20020;-69
2022/12/03 11:16:42;;;;;;;47.40;26.27;;;;;;;;;;5094706;28;20043;-69
2022/12/03 11:19:14;;;;;;;46.75;26.52;;;;;;;;;;5076424;28;20113;-70
2022/12/03 11:22:14;;;;;;;52.75;27.17;;;;;;;;;;5094481;28;20382;-70
2022/12/03 11:24:39;;;;;;;43.83;24.40;;;;;;;;;;5094367;28;20028;-69
2022/12/03 11:27:14;;;;;;;36.53;21.23;;;;;;;;;;5075175;28;20469;-70
2022/12/03 11:29:56;;;;;;;53.63;27.45;;;;;;;;;;5076269;28;20024;-70
2022/12/03 11:32:57;;;;;;;47.42;25.67;;;;;;;;;;5094199;28;20036;-69
2022/12/03 11:35:23;;;;;;;51.22;26.60;;;;;;;;;;5094508;28;20020;-69
2022/12/03 11:37:48;;;;;;;53.47;27.25;;;;;;;;;;5093293;28;20761;-69
2022/12/03 11:40:17;;;;;;;48.97;28.02;;;;;;;;;;5075289;28;20028;-69
2022/12/03 11:42:44;;;;;;;56.30;32.28;;;;;;;;;;5092947;28;20036;-69
2022/12/03 11:45:39;;;;;;;47.95;26.55;;;;;;;;;;5092753;28;20501;-69
2022/12/03 11:48:12;;;;;;;58.58;31.23;;;;;;;;;;5070063;28;20475;-69
2022/12/03 11:50:49;;;;;;;50.78;28.08;;;;;;;;;;5073694;28;20111;-70
2022/12/03 11:53:17;;;;;;;61.90;33.15;;;;;;;;;;5091359;28;20028;-68
2022/12/03 11:55:47;;;;;;;43.05;22.63;;;;;;;;;;5091693;28;20059;-69
2022/12/03 11:58:25;;;;;;;50.63;27.35;;;;;;;;;;5092345;28;20095;-69
2022/12/03 12:00:52;;;;;;;50.40;27.45;;;;;;;;;;5092002;28;20035;-69
2022/12/03 12:03:22;;;;;;;48.50;26.60;;;;;;;;;;5092020;28;20445;-69
2022/12/03 12:05:58;;;;;;;50.38;25.88;;;;;;;;;;5091880;28;20058;-69
2022/12/03 12:08:24;;;;;;;51.28;26.90;;;;;;;;;;5093234;28;20050;-69
2022/12/03 12:10:49;;;;;;;49.33;27.58;;;;;;;;;;5092992;28;20351;-69
2022/12/03 12:13:29;;;;;;;48.75;27.90;;;;;;;;;;5093252;28;20440;-69
2022/12/03 12:16:05;;;;;;;58.25;28.75;;;;;;;;;;5093348;28;20028;-69
2022/12/03 12:18:34;;;;;;;55.63;27.55;;;;;;;;;;5093123;28;20066;-69
2022/12/03 12:21:19;;;;;;;50.90;29.48;;;;;;;;;;5075133;28;20417;-69
2022/12/03 12:23:44;;;;;;;78.47;38.88;;;;;;;;;;5092847;28;20332;-69
2022/12/03 12:26:12;;;;;;;104.80;51.72;;;;;;;;;;5075062;28;20395;-69
2022/12/03 12:28:38;;;;;;;217.82;83.88;;;;;;;;;;5093159;28;20035;-69
2022/12/03 12:31:09;;;;;;;66.07;33.38;;;;;;;;;;5093053;28;20016;-69
2022/12/03 12:33:53;;;;;;;60.17;34.20;;;;;;;;;;5091857;28;20115;-69
2022/12/03 12:36:19;;;;;;;65.97;37.35;;;;;;;;;;5092604;28;20024;-71
2022/12/03 12:38:44;;;;;;;57.63;29.98;;;;;;;;;;5093699;28;20032;-71
2022/12/03 12:41:10;;;;;;;57.20;29.95;;;;;;;;;;5093477;28;20030;-71
2022/12/03 12:43:37;;;;;;;100.20;58.50;;;;;;;;;;5093378;28;20112;-71
2022/12/03 12:46:10;;;;;;;105.93;61.40;;;;;;;;;;5093549;28;20458;-71
2022/12/03 12:48:35;;;;;;;;;;;;;;;;;;5076047;28;20073;-71
2022/12/03 12:51:20;;;;;;;110.55;68.55;;;;;;;;;;5093203;28;19904;-71
2022/12/03 12:53:49;;;;;;;101.65;64.80;;;;;;;;;;5092517;28;20028;-68
2022/12/03 12:56:25;;;;;;;109.28;67.15;;;;;;;;;;5092598;28;20066;-71
2022/12/03 12:58:52;;;;;;;63.55;37.65;;;;;;;;;;5092521;28;20468;-71
2022/12/03 13:01:25;;;;;;;70.95;40.97;;;;;;;;;;5074657;28;20016;-71
2022/12/03 13:03:51;;;;;;;119.10;72.40;;;;;;;;;;5092852;28;20509;-71
2022/12/03 13:06:30;;;;;;;144.82;83.68;;;;;;;;;;5092771;28;20459;-71
2022/12/03 13:08:57;;;;;;;144.45;88.85;;;;;;;;;;5093142;28;20031;-71
2022/12/03 13:11:23;;;;;;;76.50;47.95;;;;;;;;;;5093043;28;20016;-71
2022/12/03 13:14:16;;;;;;;118.25;83.60;;;;;;;;;;5075071;28;20054;-71
2022/12/03 13:16:42;;;;;;;57.92;36.50;;;;;;;;;;5092966;28;20446;-71
2022/12/03 13:19:24;;;;;;;56.10;33.47;;;;;;;;;;5092775;28;20054;-71
2022/12/03 13:25:30;;;;;;;63.50;34.47;;;;;;;;;;5093251;28;20031;-71
2022/12/03 13:27:55;;;;;;;62.78;34.60;;;;;;;;;;5074867;28;20036;-71
2022/12/03 13:30:21;;;;;;;73.97;41.00;;;;;;;;;;5093081;28;20023;-71
2022/12/03 13:32:48;;;;;;;71.18;39.85;;;;;;;;;;5092618;28;20035;-71
2022/12/03 13:35:23;;;;;;;71.18;43.55;;;;;;;;;;5092466;28;20024;-71
2022/12/03 13:37:48;;;;;;;56.88;31.92;;;;;;;;;;5074431;28;20470;-71
2022/12/03 13:40:20;;;;;;;57.03;31.38;;;;;;;;;;5093002;28;20031;-71
2022/12/03 13:42:45;;;;;;;53.38;30.77;;;;;;;;;;5092671;28;20031;-71
2022/12/03 13:45:14;;;;;;;62.35;32.78;;;;;;;;;;5074805;28;20024;-71
2022/12/03 13:47:44;;;;;;;60.65;34.63;;;;;;;;;;5092985;28;20078;-69
2022/12/03 13:50:15;;;;;;;70.60;38.92;;;;;;;;;;5093005;28;20558;-71
2022/12/03 13:52:40;;;;;;;57.00;35.65;;;;;;;;;;5074728;28;20382;-72
2022/12/03 13:55:10;;;;;;;69.15;42.55;;;;;;;;;;5092528;28;20020;-71
2022/12/03 13:57:35;;;;;;;246.77;135.38;;;;;;;;;;5074663;28;20036;-70
2022/12/03 14:00:01;;;;;;;125.65;71.50;;;;;;;;;;5092014;28;20016;-71
2022/12/03 14:02:26;;;;;;;57.88;33.15;;;;;;;;;;5091883;28;20449;-71
2022/12/03 14:04:52;;;;;;;94.40;56.40;;;;;;;;;;5092372;28;20017;-71
2022/12/03 14:10:20;;;;;;;94.93;62.38;;;;;;;;;;5092344;28;20047;-71
2022/12/03 14:12:47;;;;;;;78.22;46.88;;;;;;;;;;5073635;28;20028;-71
2022/12/03 14:15:12;;;;;;;61.13;38.25;;;;;;;;;;5056763;28;20016;-71
2022/12/03 14:17:38;;;;;;;60.65;36.15;;;;;;;;;;5076324;28;20054;-71
2022/12/03 14:20:06;;;;;;;54.08;34.20;;;;;;;;;;5095316;28;20016;-71
2022/12/03 14:22:36;;;;;;;67.10;42.63;;;;;;;;;;5095476;28;20027;-71
2022/12/03 14:25:02;;;;;;;66.13;43.63;;;;;;;;;;5095601;28;20016;-71
2022/12/03 14:27:38;;;;;;;60.20;33.38;;;;;;;;;;5077249;28;20043;-71
2022/12/03 14:30:04;;;;;;;70.88;40.28;;;;;;;;;;5060556;28;20401;-71
2022/12/03 14:32:39;;;;;;;76.88;42.75;;;;;;;;;;5095258;28;20024;-71
2022/12/03 14:35:05;;;;;;;76.55;42.53;;;;;;;;;;5095251;28;20034;-71
2022/12/03 14:37:30;;;;;;;60.83;37.00;;;;;;;;;;5082326;28;20120;-71
2022/12/03 14:39:56;;;;;;;58.47;36.17;;;;;;;;;;5074966;28;20059;-71
2022/12/03 14:42:21;;;;;;;54.97;31.00;;;;;;;;;;5074786;28;20074;-69
2022/12/03 14:44:48;;;;;;;53.58;30.38;;;;;;;;;;5057282;28;20034;-70
2022/12/03 14:47:15;;;;;;;52.95;33.72;;;;;;;;;;5056630;28;20098;-68